sensor_id;sensor_type;location;lat;lon;timestamp;P1;durP1;ratioP1;P2;durP2;ratioP2
52564;SDS011;38460;53.106;7.004;2023-04-01T00:00:29;8.18;;;6.10;;
52564;SDS011;38460;53.106;7.004;2023-04-01T00:02:55;8.98;;;6.03;;
52564;SDS011;38460;53.106;7.004;2023-04-01T00:05:20;8.57;;;6.30;;
52564;SDS011;38460;53.106;7.004;2023-04-01T00:07:46;7.70;;;5.68;;
52564;SDS011;38460;53.106;7.004;2023-04-01T00:10:13;8.32;;;5.97;;
52564;SDS011;38460;53.106;7.004;2023-04-01T00:12:39;8.10;;;6.72;;
52564;SDS011;38460;53.106;7.004;2023-04-01T00:15:05;10.18;;;7.15;;
52564;SDS011;38460;53.106;7.004;2023-04-01T00:17:33;8.30;;;5.80;;
52564;SDS011;38460;53.106;7.004;2023-04-01T00:20:00;9.63;;;5.97;;
52564;SDS011;38460;53.106;7.004;2023-04-01T00:22:26;8.30;;;5.72;;
52564;SDS011;38460;53.106;7.004;2023-04-01T00:24:52;9.25;;;6.53;;
52564;SDS011;38460;53.106;7.004;2023-04-01T00:27:19;9.23;;;6.10;;
52564;SDS011;38460;53.106;7.004;2023-04-01T00:29:46;7.95;;;6.13;;
52564;SDS011;38460;53.106;7.004;2023-04-01T00:32:13;9.77;;;6.53;;
52564;SDS011;38460;53.106;7.004;2023-04-01T00:34:39;7.70;;;6.32;;
52564;SDS011;38460;53.106;7.004;2023-04-01T00:37:05;9.85;;;6.60;;
52564;SDS011;38460;53.106;7.004;2023-04-01T00:39:32;8.20;;;5.72;;
52564;SDS011;38460;53.106;7.004;2023-04-01T00:41:59;9.98;;;6.68;;
52564;SDS011;38460;53.106;7.004;2023-04-01T00:44:27;10.07;;;6.38;;
52564;SDS011;38460;53.106;7.004;2023-04-01T00:46:58;7.78;;;5.80;;
52564;SDS011;38460;53.106;7.004;2023-04-01T00:49:26;10.38;;;6.78;;
52564;SDS011;38460;53.106;7.004;2023-04-01T00:51:56;9.98;;;7.00;;
52564;SDS011;38460;53.106;7.004;2023-04-01T00:54:24;10.00;;;6.60;;
52564;SDS011;38460;53.106;7.004;2023-04-01T00:57:02;8.25;;;7.13;;
52564;SDS011;38460;53.106;7.004;2023-04-01T00:59:49;11.55;;;7.47;;
52564;SDS011;38460;53.106;7.004;2023-04-01T01:02:17;11.20;;;6.60;;
52564;SDS011;38460;53.106;7.004;2023-04-01T01:04:43;9.77;;;6.95;;
52564;SDS011;38460;53.106;7.004;2023-04-01T01:18:15;10.70;;;7.38;;
52564;SDS011;38460;53.106;7.004;2023-04-01T01:37:58;11.13;;;7.38;;
52564;SDS011;38460;53.106;7.004;2023-04-01T01:40:31;12.07;;;7.95;;
52564;SDS011;38460;53.106;7.004;2023-04-01T01:43:00;10.52;;;8.13;;
52564;SDS011;38460;53.106;7.004;2023-04-01T01:45:32;10.75;;;7.35;;
52564;SDS011;38460;53.106;7.004;2023-04-01T01:48:01;11.15;;;7.18;;
52564;SDS011;38460;53.106;7.004;2023-04-01T01:50:30;9.88;;;7.00;;
52564;SDS011;38460;53.106;7.004;2023-04-01T01:53:03;12.57;;;7.63;;
52564;SDS011;38460;53.106;7.004;2023-04-01T01:55:31;12.52;;;8.23;;
52564;SDS011;38460;53.106;7.004;2023-04-01T02:00:53;15.25;;;8.43;;
52564;SDS011;38460;53.106;7.004;2023-04-01T02:03:23;12.25;;;8.10;;
52564;SDS011;38460;53.106;7.004;2023-04-01T02:05:52;13.63;;;8.00;;
52564;SDS011;38460;53.106;7.004;2023-04-01T02:08:22;9.70;;;7.15;;
52564;SDS011;38460;53.106;7.004;2023-04-01T02:10:59;9.40;;;7.15;;
52564;SDS011;38460;53.106;7.004;2023-04-01T02:13:37;13.57;;;8.10;;
52564;SDS011;38460;53.106;7.004;2023-04-01T02:16:15;14.20;;;8.10;;
52564;SDS011;38460;53.106;7.004;2023-04-01T02:18:46;12.32;;;7.60;;
52564;SDS011;38460;53.106;7.004;2023-04-01T02:21:15;9.45;;;6.72;;
52564;SDS011;38460;53.106;7.004;2023-04-01T02:23:43;12.82;;;8.43;;
52564;SDS011;38460;53.106;7.004;2023-04-01T02:26:10;11.18;;;7.82;;
52564;SDS011;38460;53.106;7.004;2023-04-01T02:28:38;10.50;;;7.57;;
52564;SDS011;38460;53.106;7.004;2023-04-01T02:31:06;13.40;;;8.48;;
52564;SDS011;38460;53.106;7.004;2023-04-01T02:33:38;12.30;;;8.15;;
52564;SDS011;38460;53.106;7.004;2023-04-01T02:36:05;11.98;;;7.90;;
52564;SDS011;38460;53.106;7.004;2023-04-01T02:38:31;11.65;;;7.80;;
52564;SDS011;38460;53.106;7.004;2023-04-01T02:41:00;11.68;;;7.75;;
52564;SDS011;38460;53.106;7.004;2023-04-01T02:43:27;12.93;;;8.27;;
52564;SDS011;38460;53.106;7.004;2023-04-01T02:45:53;13.88;;;9.05;;
52564;SDS011;38460;53.106;7.004;2023-04-01T02:48:19;16.25;;;9.00;;
52564;SDS011;38460;53.106;7.004;2023-04-01T02:50:45;13.88;;;9.32;;
52564;SDS011;38460;53.106;7.004;2023-04-01T02:53:11;13.25;;;8.82;;
52564;SDS011;38460;53.106;7.004;2023-04-01T02:55:37;13.95;;;8.40;;
52564;SDS011;38460;53.106;7.004;2023-04-01T02:58:03;13.77;;;8.88;;
52564;SDS011;38460;53.106;7.004;2023-04-01T03:00:29;15.38;;;10.02;;
52564;SDS011;38460;53.106;7.004;2023-04-01T03:02:55;16.80;;;10.55;;
52564;SDS011;38460;53.106;7.004;2023-04-01T03:05:22;18.52;;;12.20;;
52564;SDS011;38460;53.106;7.004;2023-04-01T03:07:48;19.38;;;12.68;;
52564;SDS011;38460;53.106;7.004;2023-04-01T03:10:13;18.67;;;12.13;;
52564;SDS011;38460;53.106;7.004;2023-04-01T03:12:39;20.70;;;14.00;;
52564;SDS011;38460;53.106;7.004;2023-04-01T03:15:05;17.02;;;12.43;;
52564;SDS011;38460;53.106;7.004;2023-04-01T03:17:32;17.60;;;11.82;;
52564;SDS011;38460;53.106;7.004;2023-04-01T03:19:57;18.63;;;11.52;;
52564;SDS011;38460;53.106;7.004;2023-04-01T03:22:23;17.52;;;10.70;;
52564;SDS011;38460;53.106;7.004;2023-04-01T03:24:49;14.98;;;9.85;;
52564;SDS011;38460;53.106;7.004;2023-04-01T03:27:15;14.10;;;9.65;;
52564;SDS011;38460;53.106;7.004;2023-04-01T03:29:41;20.17;;;13.20;;
52564;SDS011;38460;53.106;7.004;2023-04-01T03:32:06;30.50;;;19.27;;
52564;SDS011;38460;53.106;7.004;2023-04-01T03:34:32;27.10;;;17.15;;
52564;SDS011;38460;53.106;7.004;2023-04-01T03:36:58;24.08;;;15.32;;
52564;SDS011;38460;53.106;7.004;2023-04-01T03:39:24;23.58;;;14.23;;
52564;SDS011;38460;53.106;7.004;2023-04-01T03:41:50;16.05;;;10.10;;
52564;SDS011;38460;53.106;7.004;2023-04-01T03:44:16;15.57;;;9.38;;
52564;SDS011;38460;53.106;7.004;2023-04-01T03:46:41;14.93;;;10.00;;
52564;SDS011;38460;53.106;7.004;2023-04-01T03:49:08;15.18;;;10.35;;
52564;SDS011;38460;53.106;7.004;2023-04-01T03:51:41;20.88;;;12.13;;
52564;SDS011;38460;53.106;7.004;2023-04-01T03:54:08;33.25;;;20.67;;
52564;SDS011;38460;53.106;7.004;2023-04-01T03:56:34;33.03;;;19.98;;
52564;SDS011;38460;53.106;7.004;2023-04-01T03:59:04;26.10;;;17.48;;
52564;SDS011;38460;53.106;7.004;2023-04-01T04:01:31;24.23;;;15.38;;
52564;SDS011;38460;53.106;7.004;2023-04-01T04:03:57;25.58;;;15.38;;
52564;SDS011;38460;53.106;7.004;2023-04-01T04:06:23;29.60;;;16.50;;
52564;SDS011;38460;53.106;7.004;2023-04-01T04:08:50;29.90;;;17.52;;
52564;SDS011;38460;53.106;7.004;2023-04-01T04:11:16;27.88;;;16.05;;
52564;SDS011;38460;53.106;7.004;2023-04-01T04:13:44;19.40;;;13.75;;
52564;SDS011;38460;53.106;7.004;2023-04-01T04:16:10;21.67;;;13.57;;
52564;SDS011;38460;53.106;7.004;2023-04-01T04:18:36;23.38;;;13.15;;
52564;SDS011;38460;53.106;7.004;2023-04-01T04:21:03;18.55;;;12.30;;
52564;SDS011;38460;53.106;7.004;2023-04-01T04:23:29;21.23;;;12.57;;
52564;SDS011;38460;53.106;7.004;2023-04-01T04:26:05;18.55;;;11.68;;
52564;SDS011;38460;53.106;7.004;2023-04-01T04:28:32;14.77;;;10.23;;
52564;SDS011;38460;53.106;7.004;2023-04-01T04:30:58;19.48;;;11.45;;
52564;SDS011;38460;53.106;7.004;2023-04-01T04:33:24;18.80;;;11.40;;
52564;SDS011;38460;53.106;7.004;2023-04-01T04:35:50;16.83;;;12.18;;
52564;SDS011;38460;53.106;7.004;2023-04-01T04:38:19;20.23;;;12.35;;
52564;SDS011;38460;53.106;7.004;2023-04-01T04:40:45;18.95;;;11.75;;
52564;SDS011;38460;53.106;7.004;2023-04-01T04:43:11;20.85;;;12.32;;
52564;SDS011;38460;53.106;7.004;2023-04-01T04:45:38;21.95;;;14.30;;
52564;SDS011;38460;53.106;7.004;2023-04-01T04:48:04;28.67;;;17.60;;
52564;SDS011;38460;53.106;7.004;2023-04-01T04:50:31;29.48;;;17.35;;
52564;SDS011;38460;53.106;7.004;2023-04-01T04:52:57;32.65;;;18.48;;
52564;SDS011;38460;53.106;7.004;2023-04-01T04:55:23;29.20;;;17.77;;
52564;SDS011;38460;53.106;7.004;2023-04-01T04:57:49;28.95;;;16.83;;
52564;SDS011;38460;53.106;7.004;2023-04-01T05:00:14;22.17;;;14.85;;
52564;SDS011;38460;53.106;7.004;2023-04-01T05:02:40;23.58;;;13.20;;
52564;SDS011;38460;53.106;7.004;2023-04-01T05:05:06;19.83;;;12.80;;
52564;SDS011;38460;53.106;7.004;2023-04-01T05:07:33;22.08;;;13.73;;
52564;SDS011;38460;53.106;7.004;2023-04-01T05:09:59;21.50;;;13.40;;
52564;SDS011;38460;53.106;7.004;2023-04-01T05:12:25;18.95;;;12.25;;
52564;SDS011;38460;53.106;7.004;2023-04-01T05:14:51;20.90;;;12.65;;
52564;SDS011;38460;53.106;7.004;2023-04-01T05:17:16;17.10;;;11.20;;
52564;SDS011;38460;53.106;7.004;2023-04-01T05:19:42;19.45;;;12.52;;
52564;SDS011;38460;53.106;7.004;2023-04-01T05:22:08;20.83;;;13.15;;
52564;SDS011;38460;53.106;7.004;2023-04-01T05:24:34;19.05;;;12.13;;
52564;SDS011;38460;53.106;7.004;2023-04-01T05:26:59;25.40;;;14.55;;
52564;SDS011;38460;53.106;7.004;2023-04-01T05:29:25;21.85;;;13.02;;
52564;SDS011;38460;53.106;7.004;2023-04-01T05:31:51;23.05;;;13.85;;
52564;SDS011;38460;53.106;7.004;2023-04-01T05:34:17;19.90;;;12.27;;
52564;SDS011;38460;53.106;7.004;2023-04-01T05:36:43;25.42;;;14.15;;
52564;SDS011;38460;53.106;7.004;2023-04-01T05:39:09;20.85;;;12.88;;
52564;SDS011;38460;53.106;7.004;2023-04-01T05:41:35;23.15;;;13.93;;
52564;SDS011;38460;53.106;7.004;2023-04-01T05:44:01;22.15;;;13.30;;
52564;SDS011;38460;53.106;7.004;2023-04-01T05:46:28;21.90;;;13.40;;
52564;SDS011;38460;53.106;7.004;2023-04-01T05:48:54;23.60;;;14.55;;
52564;SDS011;38460;53.106;7.004;2023-04-01T05:51:20;25.42;;;14.45;;
52564;SDS011;38460;53.106;7.004;2023-04-01T05:53:45;26.63;;;14.93;;
52564;SDS011;38460;53.106;7.004;2023-04-01T05:56:11;23.98;;;14.13;;
52564;SDS011;38460;53.106;7.004;2023-04-01T05:58:38;25.88;;;15.98;;
52564;SDS011;38460;53.106;7.004;2023-04-01T06:01:08;28.05;;;15.90;;
52564;SDS011;38460;53.106;7.004;2023-04-01T06:03:36;21.95;;;13.95;;
52564;SDS011;38460;53.106;7.004;2023-04-01T06:06:01;22.52;;;14.20;;
52564;SDS011;38460;53.106;7.004;2023-04-01T06:08:28;26.75;;;16.23;;
52564;SDS011;38460;53.106;7.004;2023-04-01T06:16:36;25.27;;;15.10;;
52564;SDS011;38460;53.106;7.004;2023-04-01T06:30:41;23.15;;;14.43;;
52564;SDS011;38460;53.106;7.004;2023-04-01T06:39:07;26.90;;;15.55;;
52564;SDS011;38460;53.106;7.004;2023-04-01T06:42:06;23.27;;;14.07;;
52564;SDS011;38460;53.106;7.004;2023-04-01T06:56:00;27.08;;;14.75;;
52564;SDS011;38460;53.106;7.004;2023-04-01T06:58:42;23.13;;;13.45;;
52564;SDS011;38460;53.106;7.004;2023-04-01T07:01:25;27.52;;;14.88;;
52564;SDS011;38460;53.106;7.004;2023-04-01T07:04:13;23.17;;;13.60;;
52564;SDS011;38460;53.106;7.004;2023-04-01T07:07:03;26.17;;;14.50;;
52564;SDS011;38460;53.106;7.004;2023-04-01T07:09:40;23.15;;;12.43;;
52564;SDS011;38460;53.106;7.004;2023-04-01T07:12:22;28.13;;;15.00;;
52564;SDS011;38460;53.106;7.004;2023-04-01T07:14:56;23.63;;;13.93;;
52564;SDS011;38460;53.106;7.004;2023-04-01T07:17:27;23.70;;;12.82;;
52564;SDS011;38460;53.106;7.004;2023-04-01T07:22:36;22.30;;;13.68;;
52564;SDS011;38460;53.106;7.004;2023-04-01T07:25:13;22.88;;;12.20;;
52564;SDS011;38460;53.106;7.004;2023-04-01T07:27:41;21.83;;;12.73;;
52564;SDS011;38460;53.106;7.004;2023-04-01T07:30:17;21.38;;;12.18;;
52564;SDS011;38460;53.106;7.004;2023-04-01T07:36:03;20.27;;;12.20;;
52564;SDS011;38460;53.106;7.004;2023-04-01T07:39:18;22.48;;;11.68;;
52564;SDS011;38460;53.106;7.004;2023-04-01T07:49:55;19.95;;;10.95;;
52564;SDS011;38460;53.106;7.004;2023-04-01T07:55:40;19.75;;;10.57;;
52564;SDS011;38460;53.106;7.004;2023-04-01T08:04:50;17.00;;;10.50;;
52564;SDS011;38460;53.106;7.004;2023-04-01T08:07:17;18.33;;;10.80;;
52564;SDS011;38460;53.106;7.004;2023-04-01T08:15:07;19.45;;;10.45;;
52564;SDS011;38460;53.106;7.004;2023-04-01T08:20:18;15.68;;;9.70;;
52564;SDS011;38460;53.106;7.004;2023-04-01T08:23:30;17.00;;;9.23;;
52564;SDS011;38460;53.106;7.004;2023-04-01T08:26:06;15.45;;;9.60;;
52564;SDS011;38460;53.106;7.004;2023-04-01T08:31:36;17.63;;;10.57;;
52564;SDS011;38460;53.106;7.004;2023-04-01T08:34:23;13.68;;;9.73;;
52564;SDS011;38460;53.106;7.004;2023-04-01T08:37:09;18.48;;;10.55;;
52564;SDS011;38460;53.106;7.004;2023-04-01T08:39:44;16.52;;;9.57;;
52564;SDS011;38460;53.106;7.004;2023-04-01T08:45:34;17.70;;;10.50;;
52564;SDS011;38460;53.106;7.004;2023-04-01T08:51:45;16.13;;;9.70;;
52564;SDS011;38460;53.106;7.004;2023-04-01T08:54:03;18.67;;;10.93;;
52564;SDS011;38460;53.106;7.004;2023-04-01T09:20:01;10.43;;;6.80;;
52564;SDS011;38460;53.106;7.004;2023-04-01T09:30:53;8.15;;;5.32;;
52564;SDS011;38460;53.106;7.004;2023-04-01T09:36:45;9.88;;;5.90;;
52564;SDS011;38460;53.106;7.004;2023-04-01T09:39:38;7.55;;;4.60;;
52564;SDS011;38460;53.106;7.004;2023-04-01T09:42:26;7.75;;;5.43;;
52564;SDS011;38460;53.106;7.004;2023-04-01T09:45:17;7.85;;;5.45;;
52564;SDS011;38460;53.106;7.004;2023-04-01T09:48:01;7.47;;;4.90;;
52564;SDS011;38460;53.106;7.004;2023-04-01T09:51:05;6.00;;;4.07;;
52564;SDS011;38460;53.106;7.004;2023-04-01T10:10:48;6.43;;;3.50;;
52564;SDS011;38460;53.106;7.004;2023-04-01T10:33:08;4.05;;;2.60;;
52564;SDS011;38460;53.106;7.004;2023-04-01T10:41:50;5.38;;;3.83;;
52564;SDS011;38460;53.106;7.004;2023-04-01T11:24:03;4.15;;;2.63;;
52564;SDS011;38460;53.106;7.004;2023-04-01T11:32:12;3.90;;;3.17;;
52564;SDS011;38460;53.106;7.004;2023-04-01T11:35:08;4.07;;;3.22;;
52564;SDS011;38460;53.106;7.004;2023-04-01T11:43:31;5.60;;;4.00;;
52564;SDS011;38460;53.106;7.004;2023-04-01T11:46:11;5.53;;;3.30;;
52564;SDS011;38460;53.106;7.004;2023-04-01T11:49:07;6.10;;;3.55;;
52564;SDS011;38460;53.106;7.004;2023-04-01T12:00:41;3.83;;;2.30;;
52564;SDS011;38460;53.106;7.004;2023-04-01T12:03:05;3.22;;;2.67;;
52564;SDS011;38460;53.106;7.004;2023-04-01T12:05:41;5.13;;;2.50;;
52564;SDS011;38460;53.106;7.004;2023-04-01T12:16:27;5.55;;;2.58;;
52564;SDS011;38460;53.106;7.004;2023-04-01T12:19:19;5.70;;;3.20;;
52564;SDS011;38460;53.106;7.004;2023-04-01T12:30:20;4.68;;;3.00;;
52564;SDS011;38460;53.106;7.004;2023-04-01T12:33:02;4.90;;;3.13;;
52564;SDS011;38460;53.106;7.004;2023-04-01T12:44:06;3.50;;;2.22;;
52564;SDS011;38460;53.106;7.004;2023-04-01T12:50:05;2.67;;;1.92;;
52564;SDS011;38460;53.106;7.004;2023-04-01T12:55:49;2.60;;;1.90;;
52564;SDS011;38460;53.106;7.004;2023-04-01T13:01:34;2.95;;;2.15;;
52564;SDS011;38460;53.106;7.004;2023-04-01T13:06:54;2.50;;;1.98;;
52564;SDS011;38460;53.106;7.004;2023-04-01T13:20:36;2.47;;;2.00;;
52564;SDS011;38460;53.106;7.004;2023-04-01T13:23:37;2.50;;;1.80;;
52564;SDS011;38460;53.106;7.004;2023-04-01T13:29:09;2.38;;;1.90;;
52564;SDS011;38460;53.106;7.004;2023-04-01T13:40:26;2.38;;;1.60;;
52564;SDS011;38460;53.106;7.004;2023-04-01T13:45:54;2.08;;;1.50;;
52564;SDS011;38460;53.106;7.004;2023-04-01T14:02:14;2.40;;;1.80;;
52564;SDS011;38460;53.106;7.004;2023-04-01T14:14:02;3.23;;;2.10;;
52564;SDS011;38460;53.106;7.004;2023-04-01T14:22:13;2.50;;;1.90;;
52564;SDS011;38460;53.106;7.004;2023-04-01T14:30:51;3.35;;;2.00;;
52564;SDS011;38460;53.106;7.004;2023-04-01T14:45:02;4.20;;;2.78;;
52564;SDS011;38460;53.106;7.004;2023-04-01T14:47:55;3.67;;;2.47;;
52564;SDS011;38460;53.106;7.004;2023-04-01T14:51:02;3.28;;;2.05;;
52564;SDS011;38460;53.106;7.004;2023-04-01T14:55:50;2.80;;;2.00;;
52564;SDS011;38460;53.106;7.004;2023-04-01T15:01:02;2.63;;;1.90;;
52564;SDS011;38460;53.106;7.004;2023-04-01T15:07:17;2.83;;;1.90;;
52564;SDS011;38460;53.106;7.004;2023-04-01T15:12:13;2.85;;;2.47;;
52564;SDS011;38460;53.106;7.004;2023-04-01T15:21:09;3.20;;;2.45;;
52564;SDS011;38460;53.106;7.004;2023-04-01T16:00:30;6.07;;;4.30;;
52564;SDS011;38460;53.106;7.004;2023-04-01T16:14:33;5.78;;;3.80;;
52564;SDS011;38460;53.106;7.004;2023-04-01T16:22:33;6.15;;;4.35;;
52564;SDS011;38460;53.106;7.004;2023-04-01T16:25:26;6.75;;;4.78;;
52564;SDS011;38460;53.106;7.004;2023-04-01T16:44:31;10.18;;;6.15;;
52564;SDS011;38460;53.106;7.004;2023-04-01T16:47:17;9.65;;;5.55;;
52564;SDS011;38460;53.106;7.004;2023-04-01T16:58:06;8.95;;;5.43;;
52564;SDS011;38460;53.106;7.004;2023-04-01T17:00:39;11.18;;;5.47;;
52564;SDS011;38460;53.106;7.004;2023-04-01T17:03:11;8.13;;;5.53;;
52564;SDS011;38460;53.106;7.004;2023-04-01T17:05:49;10.05;;;5.53;;
52564;SDS011;38460;53.106;7.004;2023-04-01T17:11:24;12.25;;;6.22;;
52564;SDS011;38460;53.106;7.004;2023-04-01T17:43:47;9.38;;;6.35;;
52564;SDS011;38460;53.106;7.004;2023-04-01T18:05:51;9.23;;;6.28;;
52564;SDS011;38460;53.106;7.004;2023-04-01T18:11:34;8.88;;;6.10;;
52564;SDS011;38460;53.106;7.004;2023-04-01T18:14:33;11.48;;;6.13;;
52564;SDS011;38460;53.106;7.004;2023-04-01T18:17:25;9.73;;;5.65;;
52564;SDS011;38460;53.106;7.004;2023-04-01T18:20:15;8.43;;;5.80;;
52564;SDS011;38460;53.106;7.004;2023-04-01T18:25:36;9.23;;;5.95;;
52564;SDS011;38460;53.106;7.004;2023-04-01T18:28:14;8.98;;;5.80;;
52564;SDS011;38460;53.106;7.004;2023-04-01T18:30:41;9.88;;;6.60;;
52564;SDS011;38460;53.106;7.004;2023-04-01T18:39:02;8.65;;;5.95;;
52564;SDS011;38460;53.106;7.004;2023-04-01T18:41:36;11.63;;;6.57;;
52564;SDS011;38460;53.106;7.004;2023-04-01T18:47:38;9.38;;;5.38;;
52564;SDS011;38460;53.106;7.004;2023-04-01T18:52:36;8.05;;;5.72;;
52564;SDS011;38460;53.106;7.004;2023-04-01T18:57:46;13.57;;;7.05;;
52564;SDS011;38460;53.106;7.004;2023-04-01T19:00:36;10.80;;;6.97;;
52564;SDS011;38460;53.106;7.004;2023-04-01T19:05:47;11.15;;;6.57;;
52564;SDS011;38460;53.106;7.004;2023-04-01T19:08:30;11.35;;;7.28;;
52564;SDS011;38460;53.106;7.004;2023-04-01T19:21:29;7.55;;;6.43;;
52564;SDS011;38460;53.106;7.004;2023-04-01T19:29:29;12.15;;;7.00;;
52564;SDS011;38460;53.106;7.004;2023-04-01T19:34:42;11.60;;;7.15;;
52564;SDS011;38460;53.106;7.004;2023-04-01T19:42:57;14.45;;;7.63;;
52564;SDS011;38460;53.106;7.004;2023-04-01T20:04:39;11.93;;;6.57;;
52564;SDS011;38460;53.106;7.004;2023-04-01T20:15:44;10.45;;;6.88;;
52564;SDS011;38460;53.106;7.004;2023-04-01T20:18:16;8.13;;;5.97;;
52564;SDS011;38460;53.106;7.004;2023-04-01T20:20:54;8.15;;;6.05;;
52564;SDS011;38460;53.106;7.004;2023-04-01T20:23:27;11.15;;;6.53;;
52564;SDS011;38460;53.106;7.004;2023-04-01T20:25:57;9.60;;;6.40;;
52564;SDS011;38460;53.106;7.004;2023-04-01T20:31:16;9.45;;;6.25;;
52564;SDS011;38460;53.106;7.004;2023-04-01T20:36:39;9.80;;;5.90;;
52564;SDS011;38460;53.106;7.004;2023-04-01T20:42:49;10.75;;;5.53;;
52564;SDS011;38460;53.106;7.004;2023-04-01T20:51:04;10.23;;;6.25;;
52564;SDS011;38460;53.106;7.004;2023-04-01T20:53:35;8.80;;;5.80;;
52564;SDS011;38460;53.106;7.004;2023-04-01T21:04:51;7.95;;;4.97;;
52564;SDS011;38460;53.106;7.004;2023-04-01T21:07:41;10.77;;;5.22;;
52564;SDS011;38460;53.106;7.004;2023-04-01T21:27:25;7.47;;;5.18;;
52564;SDS011;38460;53.106;7.004;2023-04-01T21:38:12;9.68;;;5.07;;
52564;SDS011;38460;53.106;7.004;2023-04-01T21:41:00;9.23;;;4.63;;
52564;SDS011;38460;53.106;7.004;2023-04-01T21:49:42;10.52;;;5.10;;
52564;SDS011;38460;53.106;7.004;2023-04-01T21:58:47;8.02;;;4.53;;
52564;SDS011;38460;53.106;7.004;2023-04-01T22:15:04;6.50;;;4.25;;
52564;SDS011;38460;53.106;7.004;2023-04-01T22:28:38;8.48;;;4.60;;
52564;SDS011;38460;53.106;7.004;2023-04-01T22:31:15;7.90;;;4.72;;
52564;SDS011;38460;53.106;7.004;2023-04-01T22:36:18;6.03;;;4.43;;
52564;SDS011;38460;53.106;7.004;2023-04-01T22:41:27;5.78;;;4.25;;
52564;SDS011;38460;53.106;7.004;2023-04-01T22:44:03;7.63;;;4.63;;
52564;SDS011;38460;53.106;7.004;2023-04-01T22:46:50;6.28;;;4.20;;
52564;SDS011;38460;53.106;7.004;2023-04-01T22:49:32;8.33;;;4.50;;
52564;SDS011;38460;53.106;7.004;2023-04-01T22:54:54;8.18;;;5.43;;
52564;SDS011;38460;53.106;7.004;2023-04-01T23:00:10;7.70;;;4.77;;
52564;SDS011;38460;53.106;7.004;2023-04-01T23:02:45;6.50;;;4.55;;
52564;SDS011;38460;53.106;7.004;2023-04-01T23:05:25;8.80;;;5.03;;
52564;SDS011;38460;53.106;7.004;2023-04-01T23:08:00;5.90;;;4.32;;
52564;SDS011;38460;53.106;7.004;2023-04-01T23:10:52;7.50;;;4.80;;
52564;SDS011;38460;53.106;7.004;2023-04-01T23:13:25;6.78;;;4.55;;
52564;SDS011;38460;53.106;7.004;2023-04-01T23:15:57;7.28;;;4.35;;
52564;SDS011;38460;53.106;7.004;2023-04-01T23:21:14;5.95;;;3.95;;
52564;SDS011;38460;53.106;7.004;2023-04-01T23:26:42;10.57;;;3.83;;
52564;SDS011;38460;53.106;7.004;2023-04-01T23:29:16;8.25;;;4.80;;
52564;SDS011;38460;53.106;7.004;2023-04-01T23:31:44;9.20;;;4.93;;
52564;SDS011;38460;53.106;7.004;2023-04-01T23:36:43;6.10;;;3.92;;
52564;SDS011;38460;53.106;7.004;2023-04-01T23:41:50;8.48;;;3.85;;
52564;SDS011;38460;53.106;7.004;2023-04-01T23:44:18;6.60;;;3.78;;
52564;SDS011;38460;53.106;7.004;2023-04-01T23:46:45;7.78;;;3.70;;
52564;SDS011;38460;53.106;7.004;2023-04-01T23:49:14;6.47;;;3.42;;
52564;SDS011;38460;53.106;7.004;2023-04-01T23:52:19;8.33;;;3.60;;
52564;SDS011;38460;53.106;7.004;2023-04-01T23:54:40;4.43;;;3.00;;
52564;SDS011;38460;53.106;7.004;2023-04-01T23:57:18;7.55;;;3.53;;
